WetterOnline ( http://www.wetteronline.de )

Wetter aktuell Vogelsberg (in 700m)

Aktuelles Wetter: Hoherodskopf/Vogelsberg (743m)

6-stündlich | Neueste Meldungen
Ortszeit Temperatur Wetter
So, 21.10. 20:00 8.3° C wolkig
So, 21.10. 14:00 10.0° C leicht bewölkt
So, 21.10. 8:00 6.0° C wolkenlos
So, 21.10. 2:00 5.6° C wolkenlos
Sa, 20.10. 20:00 6.9° C wolkig
Sa, 20.10. 14:00 10.3° C leicht bewölkt
Sa, 20.10. 8:00 7.4° C wolkenlos
Sa, 20.10. 2:00 9.9° C bedeckt
Ortszeit Temperatur Wetter
So, 21.10. 20:00 8.3° C wolkig
So, 21.10. 19:50 8.3° C wolkig
So, 21.10. 19:40 8.2° C leicht bewölkt
So, 21.10. 19:30 8.3° C fast wolkenlos
So, 21.10. 19:20 8.3° C fast wolkenlos
So, 21.10. 19:10 8.3° C leicht bewölkt
So, 21.10. 19:00 8.4° C leicht bewölkt
So, 21.10. 18:30 8.5° C leicht bewölkt
So, 21.10. 18:00 9.4° C fast wolkenlos
So, 21.10. 17:30 10.4° C wolkenlos
So, 21.10. 17:00 11.1° C wolkenlos
Ortszeit Relative Feuchte Sichtweite
So, 21.10. 20:00 74% 29 km
So, 21.10. 14:00 68% 30 km
So, 21.10. 8:00 85% 35 km
So, 21.10. 2:00 85% 35 km
Sa, 20.10. 20:00 77% 30 km
Sa, 20.10. 14:00 67% 20 km
Sa, 20.10. 8:00 79% 24 km
Sa, 20.10. 2:00 86% 11 km
Ortszeit Relative Feuchte Sichtweite
So, 21.10. 20:00 74% 29 km
So, 21.10. 19:50 74% -
So, 21.10. 19:40 75% -
So, 21.10. 19:30 74% 18 km
So, 21.10. 19:20 74% -
So, 21.10. 19:10 75% -
So, 21.10. 19:00 75% 3.8 km
So, 21.10. 18:30 73% 30 km
So, 21.10. 18:00 68% 35 km
So, 21.10. 17:30 64% 35 km
So, 21.10. 17:00 61% 22 km
Ortszeit Niederschlagsmenge Niederschlagsart
So, 21.10. 20:00 0.0 l/m2 in 12 Std. -
So, 21.10. 14:00 0.0 l/m2 in 6 Std. -
So, 21.10. 8:00 0.0 l/m2 in 12 Std. -
So, 21.10. 2:00 0.0 l/m2 in 6 Std. -
Sa, 20.10. 20:00 0.0 l/m2 in 12 Std. -
Sa, 20.10. 14:00 0.0 l/m2 in 6 Std. -
Sa, 20.10. 8:00 0.0 l/m2 in 12 Std. -
Sa, 20.10. 2:00 0.0 l/m2 in 6 Std. -
Ortszeit Niederschlagsmenge Niederschlagsart
So, 21.10. 20:00 0.0 l/m2 in 1 Std. -
So, 21.10. 19:50 keine Meldung -
So, 21.10. 19:40 keine Meldung -
So, 21.10. 19:30 0.0 l/m2 in 1 Std. -
So, 21.10. 19:20 keine Meldung -
So, 21.10. 19:10 keine Meldung -
So, 21.10. 19:00 0.0 l/m2 in 1 Std. -
So, 21.10. 18:30 0.0 l/m2 in 1 Std. -
So, 21.10. 18:00 0.0 l/m2 in 1 Std. -
So, 21.10. 17:30 0.0 l/m2 in 1 Std. -
So, 21.10. 17:00 0.0 l/m2 in 1 Std. -
Ortszeit Stärke Spitze Richtung
km/h Bft. km/h Grad Sektor
So, 21.10. 20:00 7 2 18 120° SO
So, 21.10. 14:00 6 1 24 70° O
So, 21.10. 8:00 13 3 28 50° NO
So, 21.10. 2:00 17 3 37 60° NO
Sa, 20.10. 20:00 20 4 33 30° NO
Sa, 20.10. 14:00 9 2 20 300° NW
Sa, 20.10. 8:00 7 2 18 30° NO
Sa, 20.10. 2:00 7 2 14 20° N
Ortszeit Stärke Spitze Richtung
km/h Bft. km/h Grad Sektor
So, 21.10. 20:00 7 2 14 120° SO
So, 21.10. 19:50 7 2 - 120° SO
So, 21.10. 19:40 7 2 - 110° O
So, 21.10. 19:30 7 2 14 110° O
So, 21.10. 19:20 7 2 - 110° O
So, 21.10. 19:10 7 2 - 110° O
So, 21.10. 19:00 9 2 13 120° SO
So, 21.10. 18:30 7 2 11 100° O
So, 21.10. 18:00 7 2 11 100° O
So, 21.10. 17:30 6 1 11 90° O
So, 21.10. 17:00 6 1 11 90° O
Ortszeit Untergrenze Bedeckung Gattung
total tief tief mittel hoch
So, 21.10. 20:00 9000 m 7/8 0/8 - - -
So, 21.10. 14:00 660 m 3/8 - - - -
So, 21.10. 8:00 - 0/8 0/8 - - -
So, 21.10. 2:00 - 0/8 0/8 - - -
Sa, 20.10. 20:00 8700 m 8/8 0/8 - - -
Sa, 20.10. 14:00 7800 m 7/8 0/8 - - -
Sa, 20.10. 8:00 - 0/8 0/8 - - -
Sa, 20.10. 2:00 750 m 8/8 8/8 - - -
Ortszeit Bedeckungsgrad in Achtel und Wolkenuntergrenze
So, 21.10. 20:00 7(9000m)
So, 21.10. 19:50 7(9000m)
So, 21.10. 19:40 6(9000m)
So, 21.10. 19:30 2(10500m)
So, 21.10. 19:20 2(10500m)
So, 21.10. 19:10 1(9000m) 3(10500m)
So, 21.10. 19:00 4(9000m) 5(10500m)
So, 21.10. 18:30 3(9000m) 3(10500m)
So, 21.10. 18:00 1(10500m)
So, 21.10. 17:30 2(10500m)
So, 21.10. 17:00 keine Wolken
Ortszeit Luftdruck NN (hPa) Tendenz (hPa in 3 Std.)
So, 21.10. 20:00 1028 - 0,1
So, 21.10. 14:00 1029 - 0,7
So, 21.10. 8:00 1030 - 0,4
So, 21.10. 2:00 1031 - 0,6
Sa, 20.10. 20:00 1030 + 0,4
Sa, 20.10. 14:00 1029 + 0,4
Sa, 20.10. 8:00 1028 + 0,7
Sa, 20.10. 2:00 1026 + 0,3
Ortszeit Luftdruck NN (hPa) Tendenz (hPa in 3 Std.)
So, 21.10. 20:00 1028 - 0,1
So, 21.10. 19:50 1028 keine Meldung
So, 21.10. 19:40 1028 keine Meldung
So, 21.10. 19:30 1028 - 0,3
So, 21.10. 19:20 1028 keine Meldung
So, 21.10. 19:10 1028 keine Meldung
So, 21.10. 19:00 1028 - 0,8
So, 21.10. 18:30 1028 - 1,0
So, 21.10. 18:00 1027 - 1,0
So, 21.10. 17:30 1027 - 1,1
So, 21.10. 17:00 1027 - 1,2
Ortszeit Schneehöhe (cm)
So, 21.10. 20:00 0
So, 21.10. 14:00 0
So, 21.10. 8:00 0
So, 21.10. 2:00 0
Sa, 20.10. 20:00 0
Sa, 20.10. 14:00 0
Sa, 20.10. 8:00 0
Sa, 20.10. 2:00 0
Ortszeit Schneehöhe (cm)
So, 21.10. 20:00 0
So, 21.10. 19:50 0
So, 21.10. 19:40 0
So, 21.10. 19:30 0
So, 21.10. 19:20 0
So, 21.10. 19:10 0
So, 21.10. 19:00 0
So, 21.10. 18:30 0
So, 21.10. 18:00 0
So, 21.10. 17:30 0
So, 21.10. 17:00 0
Link zu dieser Seite / Seite empfehlen

Das Wetter in ...